Cabinda, Cabinda Airport (FNCA)

NameCabinda Airport
CityCabinda
CountryAngola
ICAOFNCA
IATACAB
Altitude20 m
CoordinatesGoogle Map
Live Air TrafficLiveATC.net
METARFNCA 182000Z 00000KT 9000 FEW020 SCT025 25/23 Q1012
2018-10-18 20:00:00 Wind: North (0°) 0 m/s - Visibility: 9000 m - Temperature: 25 °C - Dew point: 23 °C - Humidity: 88.7% - Pressure: 1012 hPa
Statistics

The table below shows the detailed information of all flights to/from Cabinda, Cabinda Airport (FNCA).

Ident Aircraft Coming fromFrom Going toTo Owner nameOwnerDate
D2-EVW - B737 - SonAir SOR400 BOEING 737-700 B737 Luanda, Angola (FNLU) FNLU
7 km
Cabinda, Angola (FNCA) FNCA
385 km
Sonair Sonair Mon, 15 Oct 2018 19:52:01 +0000 15/10/2018 7:52 pm
D2-TBF - B737 - TAAG Angola Airlines DTA120 BOEING 737-700 B737 Luanda, Angola (FNLU) FNLU
48 km
Cabinda, Angola (FNCA) FNCA
336 km
Taag Angola Airlines Taag Angola Airlines Mon, 15 Oct 2018 05:26:40 +0000 15/10/2018 5:26 am
D2-TBJ - B737 - TAAG Angola Airlines DTA120 BOEING 737-700 B737 Luanda, Angola (FNLU) FNLU
49 km
Cabinda, Angola (FNCA) FNCA
332 km
Taag Angola Airlines Taag Angola Airlines Sun, 14 Oct 2018 05:22:33 +0000 14/10/2018 5:22 am
D2-TED - B772 - TAAG Angola Airlines DTA126 BOEING 777-200 B772 Luanda, Angola (FNLU) FNLU
9135 km
Cabinda, Angola (FNCA) FNCA
9082 km
Biman Bangladesh Airlines Biman Bangladesh Airlines Sat, 01 Sep 2018 03:10:50 +0000 1/9/2018 3:10 am